createdAt,value
2023-04-09T00:00:34.094Z,14.7026
2023-04-09T00:01:35.795Z,15.3214
2023-04-09T00:02:37.439Z,14.9528
2023-04-09T00:03:39.624Z,17.7426
2023-04-09T00:04:40.723Z,16.2837
2023-04-09T00:05:42.321Z,16.4472
2023-04-09T00:06:43.981Z,16.9947
2023-04-09T00:07:45.614Z,17.4510
2023-04-09T00:08:47.320Z,16.3406
2023-04-09T00:09:48.916Z,16.7662
2023-04-09T00:10:50.573Z,18.1039
2023-04-09T00:11:52.254Z,16.7647
2023-04-09T00:12:53.896Z,15.5429
2023-04-09T00:13:55.567Z,14.8458
2023-04-09T00:14:57.161Z,15.6652
2023-04-09T00:15:58.825Z,15.4289
2023-04-09T00:17:00.463Z,14.7152
2023-04-09T00:18:02.135Z,16.7755
2023-04-09T00:19:03.776Z,18.3622
2023-04-09T00:20:05.374Z,18.7497
2023-04-09T00:21:07.107Z,17.2316
2023-04-09T00:22:08.671Z,17.3510
2023-04-09T00:23:12.428Z,19.6172
2023-04-09T00:24:12.058Z,18.8976
2023-04-09T00:25:13.601Z,18.7979
2023-04-09T00:26:15.376Z,19.0293
2023-04-09T00:27:17.101Z,19.0184
2023-04-09T00:28:18.580Z,17.6766
2023-04-09T00:29:20.200Z,18.5354
2023-04-09T00:30:21.845Z,20.0528
2023-04-09T00:31:23.501Z,19.4147
2023-04-09T00:32:25.304Z,21.0247
2023-04-09T00:33:26.736Z,19.4945
2023-04-09T00:34:28.429Z,19.2645
2023-04-09T00:35:30.034Z,19.7532
2023-04-09T00:36:31.675Z,20.1466
2023-04-09T00:37:33.321Z,19.6879
2023-04-09T00:38:34.957Z,19.5756
2023-04-09T00:39:36.634Z,19.6807
2023-04-09T00:40:38.253Z,18.7502
2023-04-09T00:41:39.889Z,18.5107
2023-04-09T00:42:41.610Z,18.2433
2023-04-09T00:43:43.174Z,20.2180
2023-04-09T00:44:44.876Z,19.7440
2023-04-09T00:45:46.506Z,20.0796
2023-04-09T00:46:48.116Z,19.9939
2023-04-09T00:47:49.797Z,21.6473
2023-04-09T00:48:51.598Z,21.7408
2023-04-09T00:49:53.076Z,20.5688
2023-04-09T00:50:54.710Z,19.6010
2023-04-09T00:51:56.353Z,21.7016
2023-04-09T00:52:58.009Z,21.4904
2023-04-09T00:53:59.688Z,21.7357
2023-04-09T00:55:01.300Z,21.6804
2023-04-09T00:56:02.932Z,20.2986
2023-04-09T00:57:04.589Z,21.3846
2023-04-09T00:58:06.240Z,20.5156
2023-04-09T00:59:07.854Z,21.1646
2023-04-09T01:00:09.569Z,18.8849
2023-04-09T01:01:11.179Z,20.2573
2023-04-09T01:02:12.823Z,20.8618
2023-04-09T01:03:14.511Z,20.1303
2023-04-09T01:04:16.064Z,21.1019
2023-04-09T01:05:17.706Z,20.6005
2023-04-09T01:06:19.381Z,19.8300
2023-04-09T01:07:20.996Z,19.2081
2023-04-09T01:08:22.643Z,20.8321
2023-04-09T01:09:24.293Z,20.8560
2023-04-09T01:10:25.945Z,21.3991
2023-04-09T01:11:27.547Z,21.1916
2023-04-09T01:12:29.223Z,21.3333
2023-04-09T01:13:30.832Z,21.0428
2023-04-09T01:14:32.494Z,21.3957
2023-04-09T01:15:34.169Z,22.8329
2023-04-09T01:16:35.857Z,21.2345
2023-04-09T01:17:37.452Z,20.7299
2023-04-09T01:18:39.077Z,20.6711
2023-04-09T01:19:40.693Z,20.4604
2023-04-09T01:20:42.358Z,22.5972
2023-04-09T01:21:44.013Z,21.7611
2023-04-09T01:22:45.642Z,21.1564
2023-04-09T01:23:47.288Z,21.1063
2023-04-09T01:24:48.903Z,21.4048
2023-04-09T01:25:50.602Z,20.6350
2023-04-09T01:26:52.201Z,20.8201
2023-04-09T01:27:53.844Z,22.1346
2023-04-09T01:28:55.507Z,22.2276
2023-04-09T01:29:57.119Z,21.7692
2023-04-09T01:30:58.809Z,21.9895
2023-04-09T01:32:00.393Z,22.0584
2023-04-09T01:33:02.058Z,22.0515
2023-04-09T01:34:03.706Z,21.1973
2023-04-09T01:35:05.357Z,20.7763
2023-04-09T01:36:07.082Z,20.3902
2023-04-09T01:37:08.651Z,21.8402
2023-04-09T01:38:10.273Z,21.0241
2023-04-09T01:39:11.961Z,21.0666
2023-04-09T01:40:13.597Z,19.9799
2023-04-09T01:41:15.249Z,20.7309
2023-04-09T01:42:16.857Z,20.7072
2023-04-09T01:43:18.519Z,20.5445
2023-04-09T01:44:20.171Z,21.6665
2023-04-09T01:45:21.816Z,21.6675
2023-04-09T01:46:23.569Z,22.8066
2023-04-09T01:47:25.112Z,22.3020
2023-04-09T01:48:26.729Z,22.0342
2023-04-09T01:49:28.366Z,22.0565
2023-04-09T01:50:30.009Z,21.3617
2023-04-09T01:51:31.684Z,21.9392
2023-04-09T01:52:33.300Z,22.4345
2023-04-09T01:53:34.983Z,22.1727
2023-04-09T01:54:36.631Z,22.3317
2023-04-09T01:55:38.235Z,20.8634
2023-04-09T01:56:39.894Z,21.4165
2023-04-09T01:57:41.696Z,21.9295
2023-04-09T01:58:43.190Z,21.5023
2023-04-09T01:59:44.833Z,21.0356
2023-04-09T02:00:46.492Z,22.1270
2023-04-09T02:01:48.407Z,23.5792
2023-04-09T02:02:49.929Z,22.2538
2023-04-09T02:03:51.677Z,23.4477
2023-04-09T02:04:53.153Z,23.7171
2023-04-09T02:05:54.782Z,24.1935
2023-04-09T02:06:56.460Z,24.0642
2023-04-09T02:07:58.053Z,22.7217
2023-04-09T02:08:59.699Z,23.5383
2023-04-09T02:10:01.446Z,23.5937
2023-04-09T02:11:03.001Z,24.6756
2023-04-09T02:12:04.692Z,24.4107
2023-04-09T02:13:06.346Z,24.1566
2023-04-09T02:14:07.934Z,23.9688
2023-04-09T02:15:09.579Z,25.1745
2023-04-09T02:16:11.247Z,24.3619
2023-04-09T02:17:12.854Z,23.0835
2023-04-09T02:18:14.523Z,24.4525
2023-04-09T02:19:16.183Z,24.0605
2023-04-09T02:20:18.565Z,23.2037
2023-04-09T02:21:19.432Z,22.2826
2023-04-09T02:22:21.072Z,22.8978
2023-04-09T02:23:22.750Z,24.6114
2023-04-09T02:24:24.352Z,23.5612
2023-04-09T02:25:25.994Z,24.5783
2023-04-09T02:26:27.629Z,24.2874
2023-04-09T02:27:29.310Z,22.7126
2023-04-09T02:28:30.978Z,24.0781
2023-04-09T02:29:32.613Z,25.4679
2023-04-09T02:30:34.243Z,23.3998
2023-04-09T02:31:35.892Z,22.7280
2023-04-09T02:32:37.596Z,21.6267
2023-04-09T02:33:39.235Z,21.8414
2023-04-09T02:34:40.839Z,22.5297
2023-04-09T02:35:42.526Z,22.0667
2023-04-09T02:36:44.100Z,22.8594
2023-04-09T02:37:45.789Z,23.3047
2023-04-09T02:38:47.448Z,23.4720
2023-04-09T02:39:49.052Z,23.1579
2023-04-09T02:40:50.688Z,23.6749
2023-04-09T02:41:52.349Z,20.7393
2023-04-09T02:42:54.021Z,21.7750
2023-04-09T02:43:55.676Z,21.1444
2023-04-09T02:44:57.445Z,22.2780
2023-04-09T02:45:58.940Z,21.4607
2023-04-09T02:47:00.568Z,22.4875
2023-04-09T02:48:02.228Z,22.2354
2023-04-09T02:49:03.907Z,22.3167
2023-04-09T02:50:05.530Z,21.1525
2023-04-09T02:51:07.152Z,23.1409
2023-04-09T02:52:08.795Z,23.0977
2023-04-09T02:53:10.485Z,22.0526
2023-04-09T02:54:12.099Z,22.1968
2023-04-09T02:55:13.765Z,22.2597
2023-04-09T02:56:15.391Z,22.8910
2023-04-09T02:57:17.041Z,20.1284
2023-04-09T02:58:18.724Z,19.9766
2023-04-09T02:59:20.344Z,20.3461
2023-04-09T03:00:22.068Z,20.8449
2023-04-09T03:01:23.685Z,21.6048
2023-04-09T03:02:25.411Z,21.4137
2023-04-09T03:03:26.997Z,22.3305
2023-04-09T03:04:28.599Z,21.2494
2023-04-09T03:05:30.262Z,21.1164
2023-04-09T03:06:31.906Z,21.9671
2023-04-09T03:07:33.547Z,21.3975
2023-04-09T03:08:35.216Z,22.0151
2023-04-09T03:09:36.815Z,22.2753
2023-04-09T03:10:38.459Z,21.4416
2023-04-09T03:11:40.116Z,19.4494
2023-04-09T03:12:41.777Z,18.7397
2023-04-09T03:13:43.419Z,18.9170
2023-04-09T03:14:45.063Z,18.3886
2023-04-09T03:15:46.783Z,18.8019
2023-04-09T03:16:48.382Z,19.1918
2023-04-09T03:17:50.070Z,19.0151
2023-04-09T03:18:51.831Z,18.9257
2023-04-09T03:19:53.277Z,19.4831
2023-04-09T03:20:54.969Z,20.8992
2023-04-09T03:21:56.580Z,19.7133
2023-04-09T03:22:58.206Z,21.1691
2023-04-09T03:23:59.914Z,21.1691
2023-04-09T03:25:01.506Z,20.2008
2023-04-09T03:26:03.145Z,21.2392
2023-04-09T03:27:04.830Z,20.3718
2023-04-09T03:28:06.426Z,20.1754
2023-04-09T03:29:08.130Z,20.4199
2023-04-09T03:30:09.728Z,21.2190
2023-04-09T03:31:11.421Z,20.4019
2023-04-09T03:32:13.034Z,21.0218
2023-04-09T03:33:14.695Z,20.4687
2023-04-09T03:34:16.390Z,19.9911
2023-04-09T03:35:17.976Z,19.9324
2023-04-09T03:36:19.624Z,21.1575
2023-04-09T03:37:21.305Z,20.3847
2023-04-09T03:38:22.936Z,19.7250
2023-04-09T03:39:24.587Z,19.9897
2023-04-09T03:40:26.227Z,19.9099
2023-04-09T03:41:27.846Z,20.8773
2023-04-09T03:42:29.527Z,19.6969
2023-04-09T03:43:31.146Z,19.1249
2023-04-09T03:44:32.852Z,18.6093
2023-04-09T03:45:34.450Z,18.6650
2023-04-09T03:46:36.122Z,18.4801
2023-04-09T03:47:37.799Z,18.3649
2023-04-09T03:48:39.387Z,19.9479
2023-04-09T03:49:41.092Z,20.9884
2023-04-09T03:50:42.689Z,20.7951
2023-04-09T03:51:44.364Z,19.5618
2023-04-09T03:52:46.008Z,19.0424
2023-04-09T03:53:47.640Z,20.3340
2023-04-09T03:54:49.328Z,19.1799
2023-04-09T03:55:50.925Z,19.9715
2023-04-09T03:56:52.567Z,20.1821
2023-04-09T03:57:54.269Z,21.2521
2023-04-09T03:58:55.865Z,20.9362
2023-04-09T03:59:57.611Z,19.9586
2023-04-09T04:00:59.178Z,18.4952
2023-04-09T04:02:00.893Z,19.0973
2023-04-09T04:03:02.685Z,17.8593
2023-04-09T04:04:04.160Z,17.1693
2023-04-09T04:05:05.799Z,16.6213
2023-04-09T04:06:07.392Z,18.3910
2023-04-09T04:07:09.067Z,18.8487
2023-04-09T04:08:10.683Z,19.3352
2023-04-09T04:09:12.348Z,19.7569
2023-04-09T04:10:14.045Z,21.0271
2023-04-09T04:11:15.663Z,19.2352
2023-04-09T04:12:17.305Z,21.2869
2023-04-09T04:13:18.944Z,19.7086
2023-04-09T04:14:20.619Z,19.5781
2023-04-09T04:15:22.258Z,20.3982
2023-04-09T04:16:23.971Z,19.6123
2023-04-09T04:17:25.562Z,19.2208
2023-04-09T04:18:27.204Z,19.4417
2023-04-09T04:19:28.843Z,19.8199
2023-04-09T04:20:30.504Z,19.5529
2023-04-09T04:21:32.183Z,21.4826
2023-04-09T04:22:33.782Z,21.1076
2023-04-09T04:23:35.449Z,20.0062
2023-04-09T04:24:37.076Z,20.0010
2023-04-09T04:25:38.726Z,19.3889
2023-04-09T04:26:40.397Z,18.7894
2023-04-09T04:27:42.004Z,19.3317
2023-04-09T04:28:43.681Z,20.8680
2023-04-09T04:29:45.324Z,21.0414
2023-04-09T04:30:46.983Z,20.5429
2023-04-09T04:31:48.681Z,20.8185
2023-04-09T04:32:50.279Z,19.5915
2023-04-09T04:33:51.883Z,18.7120
2023-04-09T04:34:53.576Z,19.2688
2023-04-09T04:35:55.281Z,18.9345
2023-04-09T04:36:56.847Z,19.2799
2023-04-09T04:37:58.465Z,19.5363
2023-04-09T04:39:00.099Z,20.9072
2023-04-09T04:40:01.770Z,19.9668
2023-04-09T04:41:03.417Z,20.0352
2023-04-09T04:42:05.040Z,21.2845
2023-04-09T04:43:06.685Z,21.4128
2023-04-09T04:44:08.388Z,21.3927
2023-04-09T04:45:09.968Z,20.6963
2023-04-09T04:46:11.753Z,18.7753
2023-04-09T04:47:13.279Z,18.4866
2023-04-09T04:48:14.912Z,18.3530
2023-04-09T04:49:16.591Z,20.5854
2023-04-09T04:50:18.210Z,23.2511
2023-04-09T04:51:19.927Z,21.0938
2023-04-09T04:52:21.513Z,21.9701
2023-04-09T04:53:23.158Z,22.0469
2023-04-09T04:54:24.836Z,21.3625
2023-04-09T04:55:26.454Z,21.5875
2023-04-09T04:56:28.193Z,21.9755
2023-04-09T04:57:29.774Z,20.8453
2023-04-09T04:58:31.389Z,21.0347
2023-04-09T04:59:33.055Z,18.9709
2023-04-09T05:00:34.704Z,18.8289
2023-04-09T05:01:36.495Z,21.5599
2023-04-09T05:02:38.189Z,22.0903
2023-04-09T05:03:39.784Z,21.4738
2023-04-09T05:04:41.287Z,20.3631
2023-04-09T05:05:42.937Z,22.6435
2023-04-09T05:06:44.585Z,21.6463
2023-04-09T05:07:46.229Z,21.8477
2023-04-09T05:08:47.865Z,20.4012
2023-04-09T05:09:49.530Z,20.6675
2023-04-09T05:10:51.330Z,20.8757
2023-04-09T05:11:52.855Z,21.3340
2023-04-09T05:12:54.457Z,21.4550
2023-04-09T05:13:56.102Z,22.0664
2023-04-09T05:14:57.750Z,21.9033
2023-04-09T05:15:59.397Z,21.9214
2023-04-09T05:17:01.123Z,22.4568
2023-04-09T05:18:02.704Z,21.6989
2023-04-09T05:19:04.330Z,21.9067
2023-04-09T05:20:06.005Z,21.2765
2023-04-09T05:21:07.608Z,21.8730
2023-04-09T05:22:09.338Z,21.1389
2023-04-09T05:23:10.925Z,22.7670
2023-04-09T05:24:12.602Z,22.4153
2023-04-09T05:25:14.260Z,20.2526
2023-04-09T05:26:15.881Z,22.2544
2023-04-09T05:27:17.544Z,21.9318
2023-04-09T05:28:19.184Z,21.3942
2023-04-09T05:29:20.840Z,21.3540
2023-04-09T05:30:22.455Z,20.3495
2023-04-09T05:31:24.168Z,20.5387
2023-04-09T05:32:25.841Z,20.3439
2023-04-09T05:33:27.374Z,21.5242
2023-04-09T05:34:29.052Z,22.1702
2023-04-09T05:35:30.757Z,21.2986
2023-04-09T05:36:32.349Z,21.1032
2023-04-09T05:37:34.044Z,19.1220
2023-04-09T05:38:35.615Z,20.0413
2023-04-09T05:39:37.275Z,20.0286
2023-04-09T05:40:38.915Z,19.2387
2023-04-09T05:41:40.590Z,19.5136
2023-04-09T05:42:42.257Z,20.6399
2023-04-09T05:43:43.885Z,21.8075
2023-04-09T05:44:45.499Z,20.4004
2023-04-09T05:45:47.154Z,20.2021
2023-04-09T05:46:48.831Z,20.1560
2023-04-09T05:47:50.493Z,19.7879
2023-04-09T05:48:52.422Z,21.3648
2023-04-09T05:49:53.751Z,19.1370
2023-04-09T05:50:55.939Z,19.9812
2023-04-09T05:51:57.081Z,20.7595
2023-04-09T05:52:58.726Z,19.6848
2023-04-09T05:54:00.351Z,20.7666
2023-04-09T05:55:01.985Z,20.3791
2023-04-09T05:56:03.610Z,21.4032
2023-04-09T05:57:05.246Z,23.2604
2023-04-09T05:58:06.946Z,21.4667
2023-04-09T05:59:08.594Z,20.4469
2023-04-09T06:00:10.192Z,22.4516
2023-04-09T06:01:11.873Z,21.4560
2023-04-09T06:02:13.551Z,22.8818
2023-04-09T06:03:15.391Z,21.0780
2023-04-09T06:04:17.110Z,19.5195
2023-04-09T06:05:18.439Z,20.6294
2023-04-09T06:06:20.176Z,22.3329
2023-04-09T06:07:21.808Z,20.3156
2023-04-09T06:08:23.499Z,19.7843
2023-04-09T06:09:25.120Z,19.2728
2023-04-09T06:10:26.757Z,20.4243
2023-04-09T06:11:28.394Z,19.0454
2023-04-09T06:12:30.041Z,19.7737
2023-04-09T06:13:31.723Z,20.2597
2023-04-09T06:14:33.350Z,20.8882
2023-04-09T06:15:34.984Z,20.6034
2023-04-09T06:16:36.581Z,21.8584
2023-04-09T06:17:38.258Z,21.9040
2023-04-09T06:18:39.923Z,20.5545
2023-04-09T06:19:41.538Z,18.7902
2023-04-09T06:20:43.192Z,19.5711
2023-04-09T06:21:44.828Z,21.5394
2023-04-09T06:22:46.480Z,21.1337
2023-04-09T06:23:48.160Z,20.6143
2023-04-09T06:24:49.784Z,19.1708
2023-04-09T06:25:51.380Z,20.8480
2023-04-09T06:26:53.078Z,22.0940
2023-04-09T06:27:54.677Z,20.3820
2023-04-09T06:28:56.300Z,20.3817
2023-04-09T06:29:57.994Z,20.7981
2023-04-09T06:30:59.759Z,21.8327
2023-04-09T06:32:01.251Z,20.2360
2023-04-09T06:33:03.014Z,19.3910
2023-04-09T06:34:04.537Z,18.3467
2023-04-09T06:35:06.219Z,18.9780
2023-04-09T06:36:07.913Z,20.3381
2023-04-09T06:37:09.476Z,21.7479
2023-04-09T06:38:11.130Z,20.0662
2023-04-09T06:39:12.756Z,20.6498
2023-04-09T06:40:14.476Z,20.2478
2023-04-09T06:41:16.051Z,19.5195
2023-04-09T06:42:17.698Z,19.2606
2023-04-09T06:43:19.373Z,19.1127
2023-04-09T06:44:20.980Z,18.4617
2023-04-09T06:45:22.683Z,18.8982
2023-04-09T06:46:24.298Z,20.0246
2023-04-09T06:47:25.964Z,19.3287
2023-04-09T06:48:27.593Z,17.7488
2023-04-09T06:49:29.241Z,19.6845
2023-04-09T06:50:30.932Z,19.3305
2023-04-09T06:51:32.557Z,18.7745
2023-04-09T06:52:34.204Z,17.4580
2023-04-09T06:53:35.883Z,18.9590
2023-04-09T06:54:37.500Z,19.7161
2023-04-09T06:55:39.123Z,19.8038
2023-04-09T06:56:40.762Z,20.1900
2023-04-09T06:57:42.444Z,20.1871
2023-04-09T06:58:44.046Z,19.7688
2023-04-09T06:59:45.702Z,19.7872
2023-04-09T07:00:47.406Z,19.5051
2023-04-09T07:01:49.076Z,21.1036
2023-04-09T07:02:50.867Z,19.5314
2023-04-09T07:03:52.962Z,18.9615
2023-04-09T07:04:54.005Z,18.1819
2023-04-09T07:05:55.723Z,19.8821
2023-04-09T07:06:57.322Z,20.5405
2023-04-09T07:07:58.943Z,18.9726
2023-04-09T07:09:00.606Z,19.7192
2023-04-09T07:10:02.305Z,18.2164
2023-04-09T07:11:03.976Z,19.1321
2023-04-09T07:12:05.564Z,19.9810
2023-04-09T07:13:07.209Z,20.4439
2023-04-09T07:14:08.864Z,19.0745
2023-04-09T07:15:10.544Z,20.0378
2023-04-09T07:16:12.244Z,20.1793
2023-04-09T07:17:13.810Z,20.5544
2023-04-09T07:18:15.449Z,19.8059
2023-04-09T07:19:17.093Z,18.3049
2023-04-09T07:20:18.780Z,19.2007
2023-04-09T07:21:20.397Z,19.3090
2023-04-09T07:22:22.170Z,18.1035
2023-04-09T07:23:23.727Z,18.2284
2023-04-09T07:24:25.321Z,18.2793
2023-04-09T07:25:26.926Z,18.1395
2023-04-09T07:26:28.686Z,17.3878
2023-04-09T07:27:30.294Z,17.6607
2023-04-09T07:28:31.890Z,17.2421
2023-04-09T07:29:33.526Z,18.2453
2023-04-09T07:30:35.247Z,20.8760
2023-04-09T07:31:36.958Z,19.9614
2023-04-09T07:32:38.564Z,18.9470
2023-04-09T07:33:40.127Z,19.1387
2023-04-09T07:34:41.766Z,18.6562
2023-04-09T07:35:43.438Z,17.6257
2023-04-09T07:36:45.089Z,16.6313
2023-04-09T07:37:46.685Z,15.9812
2023-04-09T07:38:48.375Z,16.8793
2023-04-09T07:39:49.973Z,16.0894
2023-04-09T07:40:51.686Z,18.0596
2023-04-09T07:41:53.326Z,18.6906
2023-04-09T07:42:54.928Z,18.1179
2023-04-09T07:43:56.612Z,19.6949
2023-04-09T07:44:58.217Z,19.6383
2023-04-09T07:45:59.900Z,18.6495
2023-04-09T07:47:01.712Z,19.3148
2023-04-09T07:48:03.191Z,19.5088
2023-04-09T07:49:04.848Z,19.9635
2023-04-09T07:50:06.470Z,19.0255
2023-04-09T07:51:08.125Z,18.7358
2023-04-09T07:52:09.806Z,19.1848
2023-04-09T07:53:11.412Z,19.5830
2023-04-09T07:54:13.074Z,19.7046
2023-04-09T07:55:15.427Z,19.7001
2023-04-09T07:56:16.336Z,18.1660
2023-04-09T07:57:18.047Z,18.1090
2023-04-09T07:58:19.646Z,19.1313
2023-04-09T07:59:21.329Z,19.6882
2023-04-09T08:00:22.934Z,19.8870
2023-04-09T08:01:24.670Z,18.7981
2023-04-09T08:02:26.579Z,20.4090
2023-04-09T08:03:28.191Z,19.4085
2023-04-09T08:04:29.549Z,19.9148
2023-04-09T08:05:31.095Z,20.2862
2023-04-09T08:06:32.685Z,19.5184
2023-04-09T08:07:34.385Z,17.6290
2023-04-09T08:08:35.990Z,19.3772
2023-04-09T08:09:37.632Z,19.6376
2023-04-09T08:10:39.266Z,19.7490
2023-04-09T08:11:40.932Z,18.6269
2023-04-09T08:12:42.525Z,18.1528
2023-04-09T08:13:44.202Z,19.6604
2023-04-09T08:14:45.850Z,20.1168
2023-04-09T08:15:47.500Z,20.1334
2023-04-09T08:16:49.203Z,18.6029
2023-04-09T08:17:50.894Z,18.5241
2023-04-09T08:18:52.750Z,18.8367
2023-04-09T08:19:54.054Z,20.7593
2023-04-09T08:20:55.719Z,18.9529
2023-04-09T08:21:57.359Z,17.5669
2023-04-09T08:22:59.025Z,18.4105
2023-04-09T08:24:00.613Z,19.1933
2023-04-09T08:25:02.976Z,18.7853
2023-04-09T08:26:03.900Z,18.8322
2023-04-09T08:27:05.549Z,17.8496
2023-04-09T08:28:07.229Z,19.5555
2023-04-09T08:29:08.806Z,20.7770
2023-04-09T08:30:10.496Z,19.1948
2023-04-09T08:31:12.117Z,18.7185
2023-04-09T08:32:13.873Z,18.2247
2023-04-09T08:33:15.441Z,18.3036
2023-04-09T08:34:17.235Z,18.5733
2023-04-09T08:35:19.049Z,18.9817
2023-04-09T08:36:20.378Z,19.2677
2023-04-09T08:37:21.977Z,19.0390
2023-04-09T08:38:23.639Z,19.1096
2023-04-09T08:39:25.284Z,18.3696
2023-04-09T08:40:26.901Z,18.4922
2023-04-09T08:41:28.564Z,18.1587
2023-04-09T08:42:30.203Z,16.7352
2023-04-09T08:43:52.518Z,17.2068
2023-04-09T08:44:33.513Z,19.6393
2023-04-09T08:45:35.203Z,18.9269
2023-04-09T08:46:36.817Z,18.2752
2023-04-09T08:47:38.529Z,18.5385
2023-04-09T08:48:40.194Z,19.3627
2023-04-09T08:49:41.827Z,18.5782
2023-04-09T08:50:43.385Z,19.2266
2023-04-09T08:51:45.034Z,18.6957
2023-04-09T08:52:46.685Z,18.1736
2023-04-09T08:53:48.344Z,19.8557
2023-04-09T08:54:49.998Z,19.9621
2023-04-09T08:55:51.624Z,19.2813
2023-04-09T08:56:53.259Z,18.9337
2023-04-09T08:57:54.912Z,19.2625
2023-04-09T08:58:56.549Z,19.9680
2023-04-09T08:59:58.198Z,19.0656
2023-04-09T09:00:59.892Z,18.1786
2023-04-09T09:02:01.649Z,17.0835
2023-04-09T09:03:03.393Z,18.8813
2023-04-09T09:04:04.926Z,19.7893
2023-04-09T09:05:06.430Z,18.8136
2023-04-09T09:06:08.066Z,18.4009
2023-04-09T09:07:09.733Z,18.7714
2023-04-09T09:08:11.356Z,18.0644
2023-04-09T09:09:13.080Z,18.7014
2023-04-09T09:10:14.657Z,17.8254
2023-04-09T09:11:16.344Z,17.2079
2023-04-09T09:12:17.935Z,16.7919
2023-04-09T09:13:19.637Z,17.4118
2023-04-09T09:14:21.258Z,17.2337
2023-04-09T09:15:22.898Z,18.5601
2023-04-09T09:16:24.644Z,18.8830
2023-04-09T09:17:26.237Z,19.8882
2023-04-09T09:18:27.867Z,18.0182
2023-04-09T09:19:29.507Z,16.8041
2023-04-09T09:20:31.144Z,17.9844
2023-04-09T09:21:32.754Z,17.4859
2023-04-09T09:22:34.409Z,17.7063
2023-04-09T09:23:36.057Z,17.9554
2023-04-09T09:24:37.714Z,18.4959
2023-04-09T09:25:39.347Z,18.5047
2023-04-09T09:26:40.992Z,18.3997
2023-04-09T09:27:42.694Z,17.3076
2023-04-09T09:28:44.376Z,17.9269
2023-04-09T09:29:46.128Z,17.7949
2023-04-09T09:30:49.200Z,17.4318
2023-04-09T09:31:49.440Z,18.1340
2023-04-09T09:32:50.977Z,18.8037
2023-04-09T09:33:52.572Z,18.1421
2023-04-09T09:34:54.291Z,17.1422
2023-04-09T09:35:55.876Z,16.9473
2023-04-09T09:36:57.499Z,18.0703
2023-04-09T09:37:59.212Z,17.5466
2023-04-09T09:39:00.771Z,16.1322
2023-04-09T09:40:02.541Z,14.4058
2023-04-09T09:41:04.210Z,15.7088
2023-04-09T09:42:05.792Z,15.6110
2023-04-09T09:43:07.386Z,15.8577
2023-04-09T09:44:09.028Z,16.1422
2023-04-09T09:45:10.788Z,15.7777
2023-04-09T09:46:12.365Z,15.1462
2023-04-09T09:47:14.030Z,16.6711
2023-04-09T09:48:15.602Z,14.3647
2023-04-09T09:49:17.281Z,14.2324
2023-04-09T09:50:18.935Z,15.2588
2023-04-09T09:51:20.535Z,16.4135
2023-04-09T09:52:22.275Z,15.4397
2023-04-09T09:53:23.833Z,16.1390
2023-04-09T09:54:25.511Z,15.4489
2023-04-09T09:55:27.137Z,16.0001
2023-04-09T09:56:28.737Z,16.1605
2023-04-09T09:57:30.305Z,15.7723
2023-04-09T09:58:31.942Z,16.5644
2023-04-09T09:59:33.579Z,16.1712
2023-04-09T10:00:35.279Z,15.8735
2023-04-09T10:01:37.260Z,16.1629
2023-04-09T10:02:38.624Z,14.9085
2023-04-09T10:03:40.148Z,14.4312
2023-04-09T10:04:41.866Z,15.0609
2023-04-09T10:05:43.487Z,15.8018
2023-04-09T10:06:45.042Z,15.5953
2023-04-09T10:07:46.710Z,16.2548
2023-04-09T10:08:48.418Z,15.6495
2023-04-09T10:09:50.090Z,15.8178
2023-04-09T10:10:51.780Z,14.8798
2023-04-09T10:11:53.365Z,13.9331
2023-04-09T10:12:55.004Z,13.5846
2023-04-09T10:13:56.659Z,13.7820
2023-04-09T10:14:58.280Z,12.6656
2023-04-09T10:16:00.104Z,13.0133
2023-04-09T10:17:01.611Z,13.2184
2023-04-09T10:18:03.455Z,13.8590
2023-04-09T10:19:04.855Z,14.1613
2023-04-09T10:20:06.492Z,13.4787
2023-04-09T10:21:08.183Z,14.4918
2023-04-09T10:22:09.791Z,15.3978
2023-04-09T10:23:11.589Z,16.6762
2023-04-09T10:24:13.073Z,15.5408
2023-04-09T10:25:14.710Z,15.3423
2023-04-09T10:26:16.375Z,15.2654
2023-04-09T10:27:17.984Z,14.8093
2023-04-09T10:28:19.648Z,14.4936
2023-04-09T10:29:21.265Z,13.6838
2023-04-09T10:30:22.929Z,14.7342
2023-04-09T10:31:24.694Z,14.3828
2023-04-09T10:32:26.293Z,13.5050
2023-04-09T10:33:27.808Z,13.3517
2023-04-09T10:34:29.507Z,12.8689
2023-04-09T10:35:31.131Z,12.6941
2023-04-09T10:36:32.812Z,12.5268
2023-04-09T10:37:34.426Z,12.5841
2023-04-09T10:38:36.049Z,13.5414
2023-04-09T10:39:37.775Z,13.9114
2023-04-09T10:40:39.428Z,13.5537
2023-04-09T10:41:41.145Z,13.0058
2023-04-09T10:42:42.710Z,11.8341
2023-04-09T10:43:44.367Z,14.2832
2023-04-09T10:44:46.030Z,13.9690
2023-04-09T10:45:47.738Z,12.8258
2023-04-09T10:46:49.402Z,11.8788
2023-04-09T10:47:50.983Z,12.1232
2023-04-09T10:48:52.744Z,10.8557
2023-04-09T10:49:54.292Z,9.8693
2023-04-09T10:50:55.902Z,10.1236
2023-04-09T10:51:57.606Z,10.4853
2023-04-09T10:52:59.161Z,10.9221
2023-04-09T10:54:00.857Z,10.8594
2023-04-09T10:55:02.454Z,10.5298
2023-04-09T10:56:04.113Z,8.9318
2023-04-09T10:57:05.791Z,8.2314
2023-04-09T10:58:09.082Z,9.7678
2023-04-09T10:59:08.993Z,11.0428
2023-04-09T11:00:10.685Z,10.8788
2023-04-09T11:01:12.254Z,10.3002
2023-04-09T11:02:14.042Z,10.6718
2023-04-09T11:03:15.697Z,10.6840
2023-04-09T11:04:17.150Z,9.8674
2023-04-09T11:05:18.831Z,9.5014
2023-04-09T11:06:20.501Z,10.5473
2023-04-09T11:07:22.162Z,10.6198
2023-04-09T11:08:23.787Z,10.5411
2023-04-09T11:09:25.457Z,11.0433
2023-04-09T11:10:27.036Z,10.7112
2023-04-09T11:11:28.685Z,11.4005
2023-04-09T11:12:30.397Z,10.5858
2023-04-09T11:13:31.995Z,10.1790
2023-04-09T11:14:33.618Z,9.7743
2023-04-09T11:15:35.215Z,8.9658
2023-04-09T11:16:36.941Z,9.2969
2023-04-09T11:17:38.605Z,9.5903
2023-04-09T11:18:40.142Z,9.6705
2023-04-09T11:19:41.812Z,9.0635
2023-04-09T11:20:43.430Z,8.4676
2023-04-09T11:21:45.052Z,8.6586
2023-04-09T11:22:46.733Z,8.7105
2023-04-09T11:23:48.333Z,9.5169
2023-04-09T11:24:50.009Z,9.6860
2023-04-09T11:25:51.727Z,9.3873
2023-04-09T11:26:53.297Z,8.8270
2023-04-09T11:27:54.978Z,8.4809
2023-04-09T11:28:56.586Z,8.5505
2023-04-09T11:29:58.212Z,8.8165
2023-04-09T11:30:59.865Z,9.8737
2023-04-09T11:32:01.632Z,10.2907
2023-04-09T11:33:03.224Z,8.8157
2023-04-09T11:34:04.774Z,8.9175
2023-04-09T11:35:06.411Z,9.2750
2023-04-09T11:36:08.205Z,9.8160
2023-04-09T11:37:09.743Z,8.9002
2023-04-09T11:38:11.454Z,8.8709
2023-04-09T11:39:12.981Z,8.8330
2023-04-09T11:40:14.653Z,8.4517
2023-04-09T11:41:16.208Z,8.8026
2023-04-09T11:42:17.824Z,8.4530
2023-04-09T11:43:19.478Z,7.4009
2023-04-09T11:44:21.125Z,7.3103
2023-04-09T11:45:22.728Z,8.0175
2023-04-09T11:46:24.404Z,8.4579
2023-04-09T11:47:26.048Z,7.9424
2023-04-09T11:48:27.744Z,8.1822
2023-04-09T11:49:29.311Z,8.7633
2023-04-09T11:50:30.986Z,8.3197
2023-04-09T11:51:32.594Z,8.0248
2023-04-09T11:52:34.224Z,7.5764
2023-04-09T11:53:35.917Z,6.7651
2023-04-09T11:54:37.473Z,7.1385
2023-04-09T11:55:39.150Z,7.0537
2023-04-09T11:56:40.766Z,6.7347
2023-04-09T11:57:42.526Z,6.6730
2023-04-09T11:58:44.096Z,6.0786
2023-04-09T11:59:45.736Z,6.8971
2023-04-09T12:00:47.309Z,8.0530
2023-04-09T12:01:49.025Z,7.6098
2023-04-09T12:02:50.618Z,7.4876
2023-04-09T12:03:52.375Z,7.5707
2023-04-09T12:04:53.936Z,6.8399
2023-04-09T12:05:55.498Z,7.0684
2023-04-09T12:06:57.137Z,6.6024
2023-04-09T12:07:58.862Z,7.2890
2023-04-09T12:09:00.474Z,8.2390
2023-04-09T12:10:02.060Z,8.2158
2023-04-09T12:11:03.674Z,8.0882
2023-04-09T12:12:05.326Z,8.3798
2023-04-09T12:13:06.989Z,7.9175
2023-04-09T12:14:08.653Z,7.4296
2023-04-09T12:15:10.259Z,7.2004
2023-04-09T12:16:11.941Z,7.2231
2023-04-09T12:17:13.540Z,6.8382
2023-04-09T12:18:15.235Z,7.4220
2023-04-09T12:19:16.938Z,7.2545
2023-04-09T12:20:18.539Z,7.3931
2023-04-09T12:21:20.165Z,6.7789
2023-04-09T12:22:21.785Z,6.9510
2023-04-09T12:23:23.365Z,6.2501
2023-04-09T12:24:25.081Z,6.1353
2023-04-09T12:25:26.641Z,5.7515
2023-04-09T12:26:28.311Z,6.3335
2023-04-09T12:27:31.216Z,6.6710
2023-04-09T12:28:31.654Z,7.7041